x

Los Angeles Pier F, Ca - 9410670 (pfxc1) Weather Station

11:54 - Mon 30th May 2016 All times are PDT. -7 hours from GMT.

  • Wind
    5mph, 6mph gusts
  • Air Temp 61°f
  • Sea Pressure 1012.1mb
  • Los Angeles Pier F, Ca - 9410670
  • Los Angeles Pier F, Ca - 9410670

More Historic Weather Station data

Upgrade to MSW Pro to gain access to the past 30 days of data for over 8000 Wavebouys and Weather Stations around the globe.

Join Pro

Comparision Forecast

View Surf forecast
   
lun. 05/30 11:54 5 6 mph 1012.1mb 61f
11:48 3 6 mph 1012.2mb 61f
11:42 5
mph
1012.3mb 61f
11:36 5 6 mph 1012.3mb 61f
11:30 5 6 mph 1012.3mb 61f
11:24 5 6 mph 1012.3mb 61f
11:18 5 6 mph 1012.2mb 61f
11:12 6 7 mph 1012.3mb 61f
11:06 6 8 mph 1012.3mb 61f
11:00 6 8 mph 1012.4mb 61f
10:54 6 8 mph 1012.4mb 61f
10:48 7 9 mph 1012.5mb 61f
10:42 6 8 mph 1012.6mb 61f
10:36 6 7 mph 1012.7mb 61f
10:30 6 8 mph 1012.7mb 61f
10:24 3 6 mph 1012.7mb 61f
10:18 1 2 mph 1012.7mb 61f
10:12 2 3 mph 1012.6mb 61f
10:06 2 5 mph 1012.6mb 61f
10:00 1 3 mph 1012.6mb 61f
9:54 3 5 mph 1012.6mb 61f
9:48 3 6 mph 1012.6mb 61f
9:42 5 6 mph 1012.6mb 62f
9:36 6 7 mph 1012.5mb 62f
9:30 5 6 mph 1012.5mb 62f
9:24 5 6 mph 1012.5mb 62f
9:18 6 7 mph 1012.4mb 62f
9:12 5 6 mph 1012.3mb 62f
9:06 6 7 mph 1012.3mb 62f
9:00 6 7 mph 1012.3mb 62f
8:54 6 8 mph 1012.3mb 62f
8:48 5 6 mph 1012.3mb 62f
8:42 6 7 mph 1012.3mb 62f
8:36 6 8 mph 1012.3mb 62f
8:30 6 8 mph 1012.3mb 62f
8:24 6 8 mph 1012.3mb 62f
8:18  -  mph - 62f
8:12  -  mph - 62f
8:06  -  mph - 62f
8:00  -  mph - 62f
7:54  -  mph - 62f
7:48  -  mph - 63f
7:42  -  mph - 63f
7:36  -  mph - 63f
7:30 7 10 mph 1012.2mb -
7:24 8 9 mph 1012.2mb -
7:18  -  mph 1012.2mb -
7:12  -  mph 1012.2mb -
7:06  -  mph 1012.1mb -
7:00  -  mph 1012.1mb -
6:54  -  mph 1012.1mb -
6:48 8 13 mph 1012.1mb 65f
6:42 8 11 mph 1012mb 65f
6:36 8 10 mph 1012.1mb 65f
6:30 9 13 mph 1012mb -
6:24 10 13 mph 1012mb -
6:18  -  mph 1012mb 66f
6:12  -  mph 1012mb 66f
6:06  -  mph 1012mb 66f
6:00  -  mph 1012.1mb -
5:54  -  mph 1012.1mb -
5:48  -  mph 1012.1mb -
5:42  -  mph 1012mb -
5:30  -  mph 1012.1mb -
5:24  -  mph 1012.1mb -
5:18  -  mph 1012.1mb -
5:12  -  mph 1012.2mb -
5:06  -  mph 1012.1mb -
5:00  -  mph - 67f
4:54  -  mph - 68f
4:36  -  mph - 68f
4:30  -  mph 1012.5mb -
4:24  -  mph 1012.5mb -
4:18  -  mph - 68f
4:12  -  mph - 68f
4:06  -  mph - 68f
4:00  -  mph - 68f
3:54  -  mph - 68f
3:48  -  mph - 68f
3:42  -  mph - 69f
3:36  -  mph - 68f
3:30 13 14 mph - -
3:24 14 16 mph - -
3:18  -  mph 1013.1mb 67f
3:12  -  mph 1013.3mb 68f
3:06  -  mph 1013.3mb 68f
3:00  -  mph - 68f
2:54  -  mph - 68f
2:48  -  mph - 68f
2:42  -  mph - 67f
2:36  -  mph - 67f
2:30 11 15 mph 1013.7mb 68f
2:24 13 15 mph 1013.8mb 69f
2:18 13 14 mph 1013.9mb 69f
2:12 11 14 mph 1013.9mb 69f
2:06 11 13 mph 1014mb 69f
2:00 11 13 mph 1014mb 69f
1:54 11 13 mph 1014.1mb 69f
1:48 10 13 mph 1014.1mb 69f
1:42 9 11 mph 1014.2mb 69f
1:36 9 10 mph 1014.2mb 70f
1:30 10 11 mph 1014.3mb 71f
1:24 10
mph
1014.5mb 71f
1:18 9 10 mph 1014.6mb 71f
1:12 8 9 mph 1014.7mb 70f
1:06 7 9 mph 1014.6mb 70f
1:00 8 9 mph 1014.8mb 70f
12:54 8 10 mph 1014.8mb 70f
12:48 9 10 mph 1015mb 69f
12:42 9
mph
1015.1mb 68f
12:36 9
mph
1015.2mb 68f
12:30 8 9 mph 1015.2mb 68f
12:24 8 9 mph 1015.3mb 68f
12:18 8 9 mph 1015.3mb 68f
12:12 7 8 mph 1015.4mb 67f
12:06 7 8 mph 1015.4mb 67f
12:00 7 9 mph 1015.4mb 67f
11:54 8
mph
1015.5mb 67f
11:48 8 9 mph 1015.5mb 66f
11:42 8 9 mph 1015.5mb 66f
11:36 8 9 mph 1015.5mb 66f
11:30 8 9 mph 1015.5mb 66f
11:24 8 9 mph 1015.5mb 66f
11:18 8 9 mph 1015.5mb 66f
11:12 8 9 mph 1015.5mb 66f
11:06 8 9 mph 1015.5mb 66f
11:00 8
mph
1015.5mb 66f
10:54 7 8 mph 1015.6mb 66f
10:48 7 8 mph 1015.6mb 66f
10:42 7 8 mph 1015.6mb 66f
10:36 7 8 mph 1015.6mb 65f
10:30 7 8 mph 1015.6mb 65f
10:24 7 8 mph 1015.6mb 65f
10:18 7
mph
1015.7mb 64f
10:12 7
mph
1015.6mb 63f
10:06 7
mph
1015.6mb 63f
10:00 6 7 mph 1015.8mb 64f
9:54 6
mph
1015.8mb 63f
9:48 6 7 mph 1015.8mb 63f
9:42 6 7 mph 1015.7mb 64f
9:36 6
mph
1015.8mb 64f
9:30 6
mph
1015.8mb 64f
9:24 6
mph
1015.8mb 64f
9:18 5
mph
1015.8mb 63f
9:12 5
mph
1015.8mb 63f
9:06 3 5 mph 1015.7mb 63f
9:00 3 5 mph 1015.7mb 63f
8:54 2 3 mph 1015.7mb 64f
8:48  -  1 mph 1015.8mb 64f
8:42  -  1 mph 1015.8mb 64f
8:36  -  1 mph 1015.8mb 63f
8:30  -  1 mph 1015.8mb 63f
8:24  -  1 mph 1015.7mb 63f
8:18 1 2 mph 1015.7mb 63f
8:12  -  2 mph 1015.6mb 63f
8:06  -  1 mph 1015.6mb 63f
8:00  -  1 mph 1015.6mb 63f
7:54  -  mph 1015.5mb 63f
7:48  -  2 mph 1015.5mb 63f
7:42  -  1 mph 1015.5mb 63f
7:36 1 2 mph 1015.6mb 62f
7:30 2 3 mph 1015.5mb 62f
7:24 1 2 mph 1015.6mb 62f
7:18 2 3 mph 1015.6mb 62f
7:12 2 3 mph 1015.5mb 62f
7:06 2 3 mph 1015.5mb 62f
7:00 2 3 mph 1015.5mb 62f
6:54 2 3 mph 1015.5mb 62f
6:48 3 5 mph 1015.5mb 61f
6:42 2 3 mph 1015.5mb 61f
6:36 3
mph
1015.5mb 61f
6:30 2 3 mph 1015.5mb 61f
6:24 2 3 mph 1015.5mb 61f
6:18 2 5 mph 1015.4mb 61f
6:12 2 3 mph 1015.3mb 61f
6:06 1 3 mph 1015.3mb 61f
6:00 2 3 mph 1015.3mb 61f
5:54 1 3 mph 1015.3mb 61f
5:48  -  1 mph 1015.2mb 61f
5:42  -  1 mph 1015.2mb 61f
5:36  -  1 mph 1015.2mb 61f
5:30 1 2 mph 1015.2mb 61f
5:24 1 2 mph 1015.1mb 61f
5:18 1 2 mph 1015.2mb 60f
5:12  -  1 mph 1015.1mb 60f
5:06 1 2 mph 1015.1mb 60f
5:00 2 3 mph 1015mb 60f
4:54 2
mph
1015mb 60f
4:48 1 2 mph 1015mb 60f
4:42 1 2 mph 1015mb 60f
4:36 2 3 mph 1015.1mb 60f
4:30 1 2 mph 1015.1mb 60f
4:24  -  1 mph 1015.1mb 60f
4:18 1 2 mph 1015.1mb 60f
4:12 2 3 mph 1015.1mb 60f
4:06 2 3 mph 1015mb 60f
4:00 3 5 mph 1015mb 60f
3:54 5 6 mph 1014.9mb 60f
3:48 3 5 mph 1014.9mb 60f
3:42 5
mph
1014.8mb 60f
3:36 5 6 mph 1014.8mb 60f
3:30 5 6 mph 1014.8mb 60f
3:24 5 6 mph 1014.8mb 60f
3:18 6
mph
1014.8mb 60f
3:12 6
mph
1014.8mb 60f
3:06 6
mph
1014.8mb 60f
3:00 6 7 mph 1014.8mb 60f
2:54 5 6 mph 1014.9mb 60f
2:48 6
mph
1015mb 60f
2:42 5 6 mph 1015mb 61f
2:36 5
mph
1015mb 61f
2:30 5 6 mph 1015mb 61f
2:24 5 6 mph 1015.1mb 61f
2:18 6 7 mph 1015.1mb 61f
2:12 6
mph
1015.1mb 61f
2:06 6 7 mph 1015.1mb 61f
2:00 6 7 mph 1015.1mb 61f
1:54 6 8 mph 1015.1mb 61f
1:48 5 6 mph 1015.2mb 61f
1:42 5 6 mph 1015.2mb 61f
1:36 6 7 mph 1015.1mb 61f
1:30 6 7 mph 1015.3mb 61f
1:24 5 6 mph 1015.2mb 61f
1:18 5 6 mph 1015.3mb 61f
1:12 5
mph
1015.3mb 61f
1:06 6
mph
1015.3mb 61f
1:00 5 6 mph 1015.3mb 61f
12:54 5 6 mph 1015.3mb 61f
12:48 5 6 mph 1015.3mb 61f
12:42 6 7 mph 1015.4mb 61f
12:36 6 7 mph 1015.4mb 61f
12:30 6 8 mph 1015.4mb 61f
12:24 7 8 mph 1015.4mb 61f
12:18 6 7 mph 1015.4mb 61f
12:12 7 8 mph 1015.3mb 61f
12:06 7
mph
1015.3mb 61f
12:00 6 7 mph 1015.4mb 61f
dim. 05/29 11:54 3 6 mph 1015.5mb 61f
11:48 2 5 mph 1015.5mb 61f
11:42 5 6 mph 1015.5mb 61f
11:36 5 6 mph 1015.5mb 62f
11:30 5 6 mph 1015.4mb 62f
11:24 6 7 mph 1015.4mb 62f
11:18 6 7 mph 1015.5mb 62f
11:12 5 6 mph 1015.5mb 62f
11:06 5
mph
1015.5mb 62f
11:00 5 6 mph 1015.6mb 62f
10:54 5 6 mph 1015.7mb 62f
10:48  -  mph 1015.7mb 62f
10:42  -  mph 1015.8mb 62f
10:36  -  mph 1015.8mb 62f
10:30 5 6 mph 1015.8mb 62f
10:24 5 6 mph 1015.8mb 62f
10:18 5 6 mph 1015.8mb 62f
10:12 5 6 mph 1015.8mb 62f
10:06 3 5 mph 1015.7mb 62f
10:00 3 5 mph 1015.6mb 62f
9:54 5 6 mph 1015.6mb 62f
9:48 5 6 mph 1015.5mb 62f
9:42 6
mph
1015.4mb 62f
9:36 6
mph
1015.3mb 62f
9:30 6 8 mph 1015.3mb 62f
9:24 9 10 mph 1015.3mb 62f
9:18 9 11 mph 1015.3mb 62f
9:12 10 13 mph 1015.2mb 62f
9:06 10 13 mph 1015.2mb 62f
9:00 10 14 mph 1015.1mb 62f
8:54 10 13 mph 1015mb 63f
8:48  -  mph 1014.9mb 63f
8:42  -  mph 1015mb 63f
8:36  -  mph 1014.9mb 63f
8:30 11 14 mph 1014.9mb 63f
8:24 10 13 mph 1014.9mb 63f
8:18  -  mph 1014.8mb 63f
8:12  -  mph 1014.7mb 63f
8:06  -  mph 1014.7mb 64f
8:00  -  mph - 64f
7:54  -  mph - 64f
7:48 6 8 mph 1014.4mb -
7:42 7 10 mph 1014.4mb -
7:36 8 10 mph 1014.4mb -
7:30  -  mph 1014.3mb -
7:24  -  mph 1014.2mb -
7:18  -  mph 1014.3mb -
7:12  -  mph 1014.3mb -
7:06  -  mph 1014.3mb -
7:00  -  mph - 64f
6:54  -  mph - 64f
6:48 10 15 mph 1013.9mb 65f
6:42 10 14 mph 1013.9mb 65f
6:36 11 15 mph 1013.7mb 65f
6:30  -  mph 1013.7mb -
6:24  -  mph 1013.8mb -
6:18  -  mph - 66f
6:12  -  mph - 66f
6:06  -  mph - 66f
6:00  -  mph 1013.7mb -
5:54  -  mph 1013.7mb -
5:48  -  mph 1013.7mb -
5:42  -  mph 1013.7mb -
5:36  -  mph 1013.8mb -
5:30  -  mph 1013.8mb -
5:24  -  mph 1013.9mb -
5:18  -  mph - 68f
5:12  -  mph - 68f
5:06  -  mph - 68f
5:00  -  mph 1013.9mb 68f
4:54  -  mph 1014mb 68f
4:48  -  mph 1013.9mb -
4:42  -  mph 1014mb -
4:36  -  mph 1014mb -
4:30 11 14 mph - -
4:24 11 14 mph - -
4:18  -  mph - 69f
4:12  -  mph - 69f
4:06  -  mph - 69f
4:00  -  mph 1014.1mb -
3:54  -  mph 1014.2mb -
3:48  -  mph 1014.2mb -
3:42  -  mph 1014.2mb -
3:36  -  mph 1014.2mb -
3:30 10 13 mph 1014.4mb -
3:24 11 13 mph 1014.4mb -
3:18 11 14 mph 1014.4mb 69f
3:12 11 14 mph 1014.6mb 69f
3:06 13 14 mph 1014.6mb 69f
3:00 14 16 mph 1014.7mb 69f
2:54 11 16 mph 1014.7mb 69f
2:48 13 15 mph 1014.8mb 69f
2:42 15 17 mph 1014.7mb 68f
2:36 13 17 mph 1014.9mb 69f
2:30 11 16 mph 1014.9mb 69f
2:24 13 15 mph 1015mb 69f
2:18 14 16 mph 1015mb 69f
2:12 11 15 mph 1015mb 69f
2:06 13 16 mph 1015.2mb 69f
2:00 13 15 mph 1015.1mb 69f
1:54 13 15 mph 1015.2mb 69f
1:48 14 16 mph 1015.2mb 69f
1:42 13 15 mph 1015.3mb 69f
1:36 13 15 mph 1015.3mb 69f
1:30 11 15 mph 1015.4mb 68f
1:24 14 15 mph 1015.3mb 68f
1:18 13 15 mph 1015.4mb 68f
1:12 13 14 mph 1015.3mb 68f
1:06 13 14 mph 1015.3mb 69f
1:00 11 13 mph 1015.4mb 69f
12:54 10 13 mph 1015.5mb 69f
12:48 10 11 mph 1015.6mb 69f
12:42 10 11 mph 1015.6mb 69f
12:36 10 11 mph 1015.6mb 69f
12:30 11 13 mph 1015.6mb 69f
12:24 11 13 mph 1015.8mb 69f
12:18 11 13 mph 1015.7mb 68f
12:12 10 11 mph 1015.7mb 69f
12:06 10 11 mph 1015.8mb 69f
12:00 9 10 mph 1015.7mb 69f
11:54 9
mph
1015.8mb 69f
11:48 8 9 mph 1015.8mb 68f
11:42 9 10 mph 1015.8mb 69f
11:36 9
mph
1016mb 68f
11:30 9 10 mph 1015.9mb 67f
11:24 9 10 mph 1015.9mb 68f
11:18 9 10 mph 1015.9mb 68f
11:12 8 9 mph 1016mb 69f
11:06 8 9 mph 1016mb 67f
11:00 8 9 mph 1015.8mb 67f
10:54 8 9 mph 1015.9mb 68f
10:48 8 9 mph 1015.9mb 68f
10:42 8
mph
1015.9mb 68f
10:36 8 9 mph 1015.9mb 68f
10:30 7 8 mph 1015.9mb 66f
10:24 7 8 mph 1015.8mb 66f
10:18 7 8 mph 1015.9mb 67f
10:12 7
mph
1015.9mb 67f
10:06 6 7 mph 1015.9mb 66f
10:00 6 7 mph 1015.8mb 65f
9:54 6
mph
1015.7mb 66f
9:48 5 6 mph 1015.8mb 68f
9:42 5
mph
1015.9mb 68f
9:36 3 5 mph 1015.9mb 68f
9:30 3 5 mph 1015.9mb 67f
9:24 3
mph
1016.1mb 67f
9:18 3 5 mph 1016mb 66f
9:12 3 5 mph 1015.9mb 64f
9:06 5
mph
1015.8mb 64f
9:00 3 5 mph 1016.1mb 63f
8:54 3 5 mph 1016mb 63f
8:48 3 5 mph 1015.8mb 63f
8:42 3 5 mph 1015.8mb 63f
8:36 5
mph
1015.7mb 63f
8:30 3 5 mph 1015.7mb 63f
8:24 3
mph
1015.6mb 63f
8:18 3
mph
1015.5mb 63f
8:12 3 5 mph 1015.5mb 64f
8:06 3
mph
1015.4mb 64f
8:00 2
mph
1015.4mb 63f
7:54 1
mph
1015.4mb 63f
7:48 2
mph
1015.3mb 63f
7:42 2 3 mph 1015.3mb 63f
7:36 2
mph
1015.3mb 62f
7:30 1 2 mph 1015.2mb 62f
7:24 2 3 mph 1015.1mb 62f
7:18 3 5 mph 1015mb 62f
7:12 3
mph
1015mb 62f
7:06 2 3 mph 1015mb 62f
7:00 2
mph
1015mb 62f
6:54 2 3 mph 1015mb 62f
6:48 3
mph
1015mb 62f
6:42 3
mph
1014.9mb 62f
6:36 3 5 mph 1014.9mb 62f
6:30 5 6 mph 1014.8mb 62f
6:24 6
mph
1014.7mb 62f
6:18 5 6 mph 1014.7mb 62f
6:12 5 6 mph 1014.7mb 62f
6:06 6
mph
1014.6mb 62f
6:00 6
mph
1014.5mb 62f
5:54 7
mph
1014.5mb 62f
5:48 7
mph
1014.4mb 62f
5:42 5 6 mph 1014.3mb 62f
5:36 6 7 mph 1014.2mb 61f
5:30 7
mph
1014.1mb 61f
5:24 6 7 mph 1014.1mb 61f
5:18 7
mph
1014mb 61f
5:12 7
mph
1014mb 61f
5:06 6 7 mph 1014.1mb 61f
5:00 6 7 mph 1014mb 61f
4:54 7 8 mph 1014mb 62f
4:48 7 8 mph 1013.9mb 62f
4:42 6
mph
1013.9mb 62f
4:36 7 8 mph 1013.9mb 62f
4:30 7 8 mph 1013.9mb 62f
4:24 6 7 mph 1013.9mb 62f
4:18 7 8 mph 1013.9mb 62f
4:12 6 8 mph 1013.9mb 61f
4:06 6 7 mph 1013.9mb 61f
4:00 6
mph
1013.9mb 61f
3:54 6 7 mph 1013.9mb 61f
3:48 6
mph
1013.9mb 61f
3:42 6 8 mph 1013.9mb 61f
3:36 5 6 mph 1013.9mb 61f
3:30 3
mph
1013.8mb 61f
3:24 3 6 mph 1013.9mb 61f
3:18 6 7 mph 1013.9mb 61f
3:12 6 7 mph 1013.8mb 61f
3:06 7 8 mph 1013.8mb 61f
3:00 7 8 mph 1013.8mb 61f
2:54 8
mph
1013.7mb 61f
2:48 7 9 mph 1013.7mb 61f
2:42 7 8 mph 1013.8mb 61f
2:36 7 8 mph 1013.8mb 61f
2:30 6 7 mph 1013.9mb 61f
2:24 5 6 mph 1013.9mb 61f
2:18 6
mph
1013.9mb 61f
2:12 6
mph
1013.9mb 61f
2:06 6
mph
1013.9mb 61f
2:00 5 6 mph 1013.8mb 61f
1:54 5
mph
1013.9mb 61f
1:48 5 6 mph 1013.9mb 61f
1:42 6
mph
1013.9mb 61f
1:36 5 6 mph 1013.9mb 61f
1:30 5
mph
1014mb 61f
1:24 3 5 mph 1014mb 61f
1:18 3 5 mph 1014.1mb 61f
1:12 2 3 mph 1014.1mb 61f
1:06 3 5 mph 1014.1mb 61f
1:00 3 5 mph 1014.1mb 61f
12:54 3 5 mph 1014.2mb 61f
12:48 3 5 mph 1014.2mb 61f
12:42 3 5 mph 1014.2mb 61f
12:36 3 5 mph 1014.2mb 61f
12:30 3 5 mph 1014.3mb 61f
12:24 3 5 mph 1014.3mb 61f
12:18 5 6 mph 1014.3mb 61f
12:12 3 5 mph 1014.4mb 61f
12:06 5 6 mph 1014.4mb 61f
12:00 6
mph
1014.4mb 61f
sam. 05/28 11:54 6
mph
1014.4mb 61f
11:48 5 6 mph 1014.3mb 61f
11:42 6 7 mph 1014.3mb 61f
11:36 6 7 mph 1014.2mb 61f
11:30 5 7 mph 1014.2mb 61f
11:24 6 7 mph 1014.2mb 61f
11:18 5 6 mph 1014.2mb 61f
11:12 6 7 mph 1014.2mb 62f
11:06 5 6 mph 1014.2mb 62f
11:00 6 7 mph 1014.2mb 62f
10:54 6 7 mph 1014.2mb 62f
10:48  -  mph 1014.2mb 62f
10:42  -  mph 1014.2mb 62f
10:36  -  mph 1014.2mb 62f
10:30 5 6 mph 1014.2mb 62f
10:24 5 6 mph 1014.2mb 62f
10:18 1 3 mph 1014.1mb 62f
10:12  -  1 mph 1014mb 62f
10:06 1 2 mph 1013.9mb 62f
10:00 1 2 mph 1013.9mb 62f
9:54 2 3 mph 1013.9mb 62f
9:48 2 3 mph 1013.9mb 62f
9:42 2 3 mph 1013.8mb 62f
9:36 2 3 mph 1013.7mb 62f
9:30 2
mph
1013.6mb 61f
9:24 2 3 mph 1013.6mb 61f
9:18 5 6 mph 1013.5mb 61f
9:12 5 6 mph 1013.4mb 61f
9:06 5 7 mph 1013.4mb 61f
9:00 6 8 mph 1013.4mb 61f
8:54 6 8 mph 1013.2mb 61f
8:48 6 8 mph 1013.2mb 61f
8:42 7 9 mph 1013.3mb 61f
8:36 6 8 mph 1013.4mb 61f
8:30 7 8 mph 1013.4mb 61f
8:24 8 10 mph 1013.3mb 61f
8:18  -  mph 1013.1mb 61f
8:12  -  mph 1013.1mb 61f
8:06  -  mph 1012.9mb 61f
8:00  -  mph 1012.8mb 61f
7:54  -  mph 1012.8mb 61f
7:48 10 13 mph - -
7:42 13 15 mph - -
7:36 10 13 mph - -
7:30 11 14 mph 1012.3mb -
7:24 11 14 mph 1012.1mb -
7:18  -  mph 1012.1mb 63f
7:12  -  mph 1012mb 63f
7:06  -  mph 1012mb 64f
7:00  -  mph 1011.9mb -
6:54  -  mph 1011.8mb -
6:48  -  mph - 64f
6:42  -  mph - 64f
6:36  -  mph - 65f
6:30 10 14 mph - -
6:24 9 13 mph - -
6:18  -  mph 1011.1mb 65f
6:12  -  mph 1011.2mb 66f
6:06  -  mph 1011.1mb 65f
6:00  -  mph 1011mb 66f
5:54  -  mph 1010.9mb 66f
5:48  -  mph - 66f
5:42  -  mph - 66f
5:36  -  mph - 66f
5:30 11 14 mph - -
5:24 10 13 mph - -
5:18  -  mph 1010.8mb -
5:12  -  mph 1010.7mb -
5:06  -  mph 1010.6mb -
5:00 13 16 mph - -
4:54 11 14 mph - -
4:48  -  mph 1010.6mb -
4:42  -  mph 1010.6mb -
4:36  -  mph 1010.5mb -
4:30 14 15 mph 1010.5mb -
4:24 14 15 mph 1010.5mb -
4:18  -  mph - 67f
4:12  -  mph - 66f
4:06  -  mph - 66f
4:00 13 15 mph - 66f
3:54 13 14 mph - 66f
3:48  -  mph 1010.9mb -
3:42  -  mph 1010.9mb -
3:36  -  mph 1010.9mb -
3:30  -  mph 1010.8mb 67f
3:24  -  mph 1010.9mb 67f
3:18  -  mph 1010.9mb 67f
3:12  -  mph 1011mb 67f
3:06  -  mph 1011mb 67f
3:00 10 14 mph - -
2:54 13 15 mph - -
2:48  -  mph 1011.2mb 67f
2:42  -  mph 1011.2mb 67f
2:36  -  mph 1011.2mb 67f
2:30 13 14 mph 1011.3mb 67f
2:24 13 14 mph 1011.3mb 67f
2:18 14
mph
1011.3mb 67f
2:12 13 14 mph 1011.3mb 67f
2:06 13 14 mph 1011.4mb 67f
2:00 13 14 mph 1011.4mb 67f
1:54 13
mph
1011.5mb 67f
1:48 13 14 mph 1011.5mb 67f
1:42 11 14 mph 1011.5mb 67f
1:36 13 14 mph 1011.5mb 67f
1:30 11 13 mph 1011.6mb 67f
1:24 11 14 mph 1011.7mb 67f
1:18 11 13 mph 1011.8mb 66f
1:12 11 13 mph 1011.8mb 64f
1:06 11 13 mph 1011.8mb 64f
1:00 11 13 mph 1011.9mb 63f
12:54 11 13 mph 1011.9mb 63f
12:48 11 13 mph 1011.9mb 62f
12:42 11 13 mph 1012mb 62f
12:36 11 13 mph 1012mb 62f
12:30 13
mph
1012.1mb 62f
12:24 11 13 mph 1012mb 62f
12:18 10 11 mph 1012mb 62f
12:12 10 11 mph 1012.1mb 62f
12:06 10 11 mph 1012.1mb 62f
12:00 9 10 mph 1012.1mb 62f
11:54 9 10 mph 1012.1mb 62f
11:48 9 11 mph 1012.2mb 62f
11:42 9 10 mph 1012.1mb 62f
11:36 8 10 mph 1012.1mb 63f
11:30 8 9 mph 1012.2mb 63f
11:24 8
mph
1012.1mb 63f
11:18 8
mph
1012.2mb 63f
11:12 7 8 mph 1012.1mb 63f
11:06 7 8 mph 1012.2mb 63f
11:00 7 8 mph 1012.2mb 63f
10:54 7 8 mph 1012.2mb 63f
10:48 7 8 mph 1012.2mb 63f
10:42 7 8 mph 1012.1mb 63f
10:36 7 8 mph 1012.2mb 63f
10:30 6 7 mph 1012.2mb 63f
10:24 6 7 mph 1012.1mb 62f
10:18 6 8 mph 1012.1mb 62f
10:12 6 7 mph 1012mb 62f
10:06 6 7 mph 1012.1mb 62f
10:00 6
mph
1012.1mb 62f
9:54 7
mph
1012.1mb 62f
9:48 7 8 mph 1012.1mb 62f
9:42 6 7 mph 1012.2mb 62f
9:36 7 8 mph 1012.2mb 62f
9:30 7 8 mph 1012.2mb 61f
9:24 7 8 mph 1012.2mb 61f
9:18 7 8 mph 1012.2mb 61f
9:12 7 8 mph 1012.2mb 61f
9:06 6 7 mph 1012.1mb 61f
9:00 7 8 mph 1012mb 61f
8:54 8 9 mph 1012mb 61f
8:48 8 9 mph 1011.9mb 61f
8:42 8 9 mph 1011.8mb 61f
8:36 8 9 mph 1011.8mb 61f
8:30 7 9 mph 1011.7mb 61f
8:24 3 6 mph 1011.7mb 61f
8:18 5 7 mph 1011.6mb 61f
8:12 6 7 mph 1011.5mb 61f
8:06 7
mph
1011.5mb 61f
8:00 7
mph
1011.4mb 61f
7:54 5 7 mph 1011.4mb 61f
7:48 3 5 mph 1011.4mb 61f
7:42 6 7 mph 1011.3mb 61f
7:36 6 7 mph 1011.2mb 61f
7:30 5 6 mph 1011.2mb 61f
7:24 6 7 mph 1011.2mb 61f
7:18 6 7 mph 1011.2mb 61f
7:12 5 6 mph 1011.1mb 61f
7:06 5 6 mph 1011mb 61f
7:00 3 6 mph 1010.9mb 61f
6:54 3 5 mph 1010.9mb 61f
6:48 3 5 mph 1010.7mb 61f
6:42 2 5 mph 1010.7mb 61f
6:36 2 5 mph 1010.6mb 61f
6:30  -  mph 1010.5mb 61f
6:24  -  1 mph 1010.5mb 61f
6:18  -  1 mph 1010.4mb 61f
6:12 1 2 mph 1010.4mb 61f
6:06 2 3 mph 1010.4mb 61f
6:00  -  mph 1010.3mb 61f
5:54  -  mph 1010.2mb 61f
5:48 2 3 mph 1010.1mb 61f
5:42 2 3 mph 1010.1mb 61f
5:36  -  2 mph 1010.1mb 61f
5:30  -  2 mph 1010mb 61f
5:24 1 2 mph 1010mb 61f
5:18  -  2 mph 1009.9mb 61f
5:12 2 5 mph 1009.9mb 61f
5:06 2 5 mph 1009.9mb 61f
5:00 3 6 mph 1009.9mb 61f
4:54 5 6 mph 1009.9mb 61f
4:48 2 3 mph 1009.9mb 61f
4:42 2 3 mph 1009.9mb 61f
4:36 2 5 mph 1009.8mb 61f
4:30 2 3 mph 1009.7mb 61f
4:24 2 3 mph 1009.7mb 61f
4:18 2 3 mph 1009.7mb 61f
4:12 1 2 mph 1009.7mb 61f
4:06  -  2 mph 1009.7mb 61f
4:00 1 3 mph 1009.7mb 61f
3:54  -  1 mph 1009.7mb 61f
3:48 1 2 mph 1009.8mb 61f
3:42  -  2 mph 1009.8mb 61f
3:36  -  1 mph 1009.7mb 61f
3:30  -  2 mph 1009.7mb 61f
3:24 3 5 mph 1009.6mb 61f
3:18 2 3 mph 1009.6mb 61f
3:12 3 5 mph 1009.7mb 61f
3:06 2 5 mph 1009.8mb 61f
3:00 2 3 mph 1009.8mb 61f
2:54 2 3 mph 1009.9mb 61f
2:48 1 2 mph 1009.9mb 61f
2:42  -  1 mph 1010mb 61f
2:36  -  2 mph 1010.1mb 61f
2:30 1 2 mph 1010.2mb 61f
2:24  -  2 mph 1010.2mb 61f
2:18 1 2 mph 1010.2mb 61f
2:12 3 6 mph 1010.2mb 61f
2:06 3 5 mph 1010.3mb 61f
2:00 3 6 mph 1010.4mb 61f
1:54 3 6 mph 1010.4mb 61f
1:48 5 8 mph 1010.5mb 61f
1:42 2 3 mph 1010.6mb 61f
1:36 3 5 mph 1010.7mb 61f
1:30 2 3 mph 1010.7mb 60f
1:24 3 5 mph 1010.7mb 61f
1:18 5 7 mph 1010.7mb 61f
1:12 5 7 mph 1010.8mb 61f
1:06 2 3 mph 1010.9mb 61f
1:00 5 8 mph 1011mb 61f
12:54 5 6 mph 1011mb 61f
12:48 2 5 mph 1011.1mb 61f
12:42 2 3 mph 1011.2mb 60f
12:36 3 5 mph 1011.2mb 60f
12:30 5 6 mph 1011.2mb 60f
12:24 6 8 mph 1011.3mb 60f
12:18 6 7 mph 1011.4mb 60f
12:12 7 8 mph 1011.4mb 60f
12:06 6 8 mph 1011.4mb 60f
12:00 6 7 mph 1011.3mb 60f
ven. 05/27 11:54 6 7 mph 1011.2mb 60f
11:48 6 7 mph 1011.3mb 60f
11:42 7 8 mph 1011.4mb 60f
11:36 7 8 mph 1011.4mb 60f
11:30 8 9 mph 1011.5mb 60f
11:24 7 8 mph 1011.5mb 60f
11:18  -  mph 1011.5mb 60f
11:12  -  mph 1011.5mb 60f
11:06  -  mph 1011.5mb 60f
11:00  -  mph 1011.6mb 60f
10:54  -  mph 1011.6mb 60f
10:48 7
mph
1011.5mb 60f
10:42 7 8 mph 1011.5mb 60f
10:36 7 8 mph 1011.6mb 60f
10:30 6 7 mph 1011.6mb 60f
10:24 6 7 mph 1011.6mb 60f
10:18 6 7 mph 1011.6mb 60f
10:12 7 8 mph 1011.6mb 60f
10:06 7 8 mph 1011.5mb 60f
10:00 7 8 mph 1011.6mb 60f
9:54 7 8 mph 1011.6mb 60f
9:48 8 9 mph 1011.6mb 60f
9:42 8 9 mph 1011.5mb 60f
9:36 9 10 mph 1011.5mb 60f
9:30 9 10 mph 1011.5mb 60f
9:24 10 11 mph 1011.5mb 60f
9:18 9 11 mph 1011.5mb 60f
9:12 9 10 mph 1011.5mb 60f
9:06 8 10 mph 1011.4mb 61f
9:00 7 9 mph 1011.4mb 61f
8:54 8 9 mph 1011.3mb 61f
8:48  -  mph 1011.2mb 61f
8:42  -  mph 1011.2mb 61f
8:36  -  mph 1011.1mb 61f
8:30 7 8 mph 1011.1mb 61f
8:24 8 9 mph 1011mb 61f
8:18  -  mph 1011mb -
8:12  -  mph 1011mb -
8:06  -  mph 1010.9mb -
8:00 9 11 mph 1010.9mb -
7:54 7 10 mph 1010.8mb -
7:48 8 11 mph 1010.7mb -
7:42 10 13 mph 1010.7mb -
7:36 11 16 mph 1010.7mb -
7:30  -  mph 1010.7mb -
7:24  -  mph 1010.5mb -
7:18  -  mph 1010.5mb 62f
7:12  -  mph 1010.4mb 62f
7:06  -  mph 1010.4mb 63f
7:00 10 15 mph 1010.2mb -
6:54 11 15 mph 1010.2mb -
6:48  -  mph 1010.2mb -
6:42  -  mph 1010.2mb -
6:36  -  mph 1010.1mb -
6:30 14 17 mph 1009.9mb -
6:24 13 17 mph 1009.9mb -
6:18  -  mph 1009.9mb -
6:12  -  mph 1009.8mb -
6:06  -  mph 1009.9mb -
6:00 13 15 mph 1009.8mb -
5:54 11 15 mph 1009.9mb -
5:48  -  mph 1009.8mb -
5:42  -  mph 1009.7mb -
5:36  -  mph 1009.8mb -
5:30 13 16 mph 1009.8mb -
5:24 11 15 mph 1009.8mb -
5:18  -  mph - 66f
5:12  -  mph - 67f
5:06  -  mph - 67f
5:00  -  mph 1009.6mb -
4:54  -  mph 1009.7mb -
4:48  -  mph 1009.5mb -
4:42  -  mph 1009.6mb -
4:36  -  mph 1009.6mb -
4:30 10 14 mph 1009.8mb -
4:24 13 16 mph 1009.8mb -
4:18  -  mph 1009.9mb 68f
4:12  -  mph 1009.9mb 68f
4:06  -  mph 1010mb 67f
4:00 15 17 mph 1010.1mb -
3:54 16 18 mph 1010.2mb -
3:48  -  mph 1010.3mb -
3:42  -  mph 1010.3mb -
3:36  -  mph 1010.4mb -
3:30 14 16 mph 1010.5mb -
3:24 14 16 mph 1010.5mb -
3:18  -  mph 1010.6mb -
3:12  -  mph 1010.6mb -
3:06  -  mph 1010.8mb -
3:00  -  mph 1010.8mb 66f
2:54  -  mph 1010.9mb 66f
2:48  -  mph 1011mb 65f
2:42  -  mph 1010.9mb 65f
2:36  -  mph 1011mb 65f
2:30 11 13 mph 1011mb 65f
2:24 11 13 mph 1011mb 64f
2:18 10 13 mph 1011.1mb 64f
2:12 10 13 mph 1011.3mb 64f
2:06 10 13 mph 1011.4mb 63f
2:00 10 13 mph 1011.4mb 63f
1:54 11 13 mph 1011.5mb 64f
1:48 11 13 mph 1011.7mb 64f
1:42 11 13 mph 1011.8mb 63f
1:36 11 13 mph 1011.7mb 63f
1:30 10 11 mph 1011.8mb 63f
1:24 9 11 mph 1011.9mb 63f
1:18 10 11 mph 1012mb 63f
1:12 10 13 mph 1012.1mb 63f
1:06 10 13 mph 1012.1mb 63f
1:00 11 13 mph 1012.1mb 62f
12:54 11 13 mph 1012.2mb 62f
12:48 11 13 mph 1012.2mb 62f
12:42 11
mph
1012.3mb 63f
12:36 11 13 mph 1012.4mb 63f
12:30 10 11 mph 1012.5mb 63f
12:24 11 13 mph 1012.5mb 63f
12:18 10 11 mph 1012.6mb 63f
12:12 11 13 mph 1012.6mb 62f
12:06 10 11 mph 1012.7mb 62f
12:00 9 10 mph 1012.8mb 62f
11:54 9 10 mph 1012.8mb 62f
11:48 9 10 mph 1012.8mb 62f
11:42 9 10 mph 1012.9mb 62f
11:36 9 10 mph 1012.9mb 62f
11:30 10 11 mph 1012.9mb 62f
11:24 8 10 mph 1013mb 63f
11:18 8 9 mph 1012.9mb 63f
11:12 8 9 mph 1013.1mb 64f
11:06 8
mph
1013.1mb 64f
11:00 8
mph
1013.2mb 64f
10:54 7 8 mph 1013.3mb 64f
10:48 8 9 mph 1013.2mb 63f
10:42 7 9 mph 1013.2mb 62f
10:36 7 8 mph 1013.2mb 62f
10:30 8 9 mph 1013.2mb 62f
10:24 8 9 mph 1013.2mb 62f
10:18 8 9 mph 1013.2mb 62f
10:12 6 7 mph 1013.4mb 62f
10:06 6 7 mph 1013.4mb 62f
10:00 6 7 mph 1013.5mb 62f
9:54 5 6 mph 1013.5mb 62f
9:48 6
mph
1013.6mb 62f
9:42 6 7 mph 1013.6mb 62f
9:36 6 7 mph 1013.6mb 61f
9:30 5 6 mph 1013.6mb 61f
9:24 5 6 mph 1013.7mb 61f
9:18 6 7 mph 1013.7mb 62f
9:12 7 8 mph 1013.8mb 62f
9:06 8
mph
1013.9mb 61f
9:00 7 9 mph 1013.9mb 61f
8:54 8 9 mph 1013.9mb 61f
8:48 8 9 mph 1013.9mb 61f
8:42 8 9 mph 1013.9mb 61f
8:36 8 10 mph 1013.9mb 61f
8:30 10 11 mph 1013.9mb 61f
8:24 11 13 mph 1013.7mb 61f
8:18 11 13 mph 1013.7mb 61f
8:12 11 13 mph 1013.7mb 61f
8:06 10 13 mph 1013.7mb 61f
8:00 11 13 mph 1013.7mb 61f
7:54 10 13 mph 1013.6mb 61f